Time;durP1;ratioP1;P1;durP2;ratioP2;P2;SDS_P1;SDS_P2;PMS_P1;PMS_P2;Temp;Humidity;BMP_temperature;BMP_pressure;BME280_temperature;BME280_humidity;BME280_pressure;Samples;Min_cycle;Max_cycle;Signal;HPM_P1;HPM_P2
2022/08/28 00:00:38;;;;;;;0.00;0.00;;;;;;;;;;5053286;28;20039;-58
2022/08/28 00:03:04;;;;;;;0.00;0.00;;;;;;;;;;5051443;28;20020;-58
2022/08/28 00:05:30;;;;;;;0.10;0.10;;;;;;;;;;5053260;28;20112;-58
2022/08/28 00:07:56;;;;;;;0.13;0.13;;;;;;;;;;5053352;28;20086;-59
2022/08/28 00:10:22;;;;;;;0.00;0.00;;;;;;;;;;5053171;28;20016;-58
2022/08/28 00:12:48;;;;;;;1.20;0.85;;;;;;;;;;5053531;28;20450;-57
2022/08/28 00:15:15;;;;;;;0.00;0.00;;;;;;;;;;5051873;28;20082;-58
2022/08/28 00:17:41;;;;;;;0.40;0.40;;;;;;;;;;5054269;28;20083;-59
2022/08/28 00:20:08;;;;;;;0.00;0.00;;;;;;;;;;5054692;28;20013;-58
2022/08/28 00:22:33;;;;;;;0.00;0.00;;;;;;;;;;5051969;28;20078;-59
2022/08/28 00:24:59;;;;;;;0.17;0.17;;;;;;;;;;5051553;28;20025;-58
2022/08/28 00:30:08;;;;;;;0.22;0.22;;;;;;;;;;5054127;28;20035;-58
2022/08/28 00:32:34;;;;;;;0.00;0.00;;;;;;;;;;5051527;28;20119;-59
2022/08/28 00:35:00;;;;;;;0.00;0.00;;;;;;;;;;5053866;28;20021;-58
2022/08/28 00:37:26;;;;;;;2.30;0.30;;;;;;;;;;5051511;28;20029;-60
2022/08/28 00:39:52;;;;;;;0.10;0.10;;;;;;;;;;5054034;28;20450;-59
2022/08/28 00:42:17;;;;;;;0.10;0.10;;;;;;;;;;5053903;28;20112;-59
2022/08/28 00:44:44;;;;;;;0.95;0.70;;;;;;;;;;5050976;28;20347;-57
2022/08/28 00:47:09;;;;;;;0.03;0.03;;;;;;;;;;5052628;28;20032;-57
2022/08/28 00:49:36;;;;;;;0.08;0.08;;;;;;;;;;5051176;28;20025;-59
2022/08/28 00:52:04;;;;;;;0.00;0.00;;;;;;;;;;5051150;28;20021;-60
2022/08/28 00:54:32;;;;;;;0.00;0.00;;;;;;;;;;5051086;28;20103;-59
2022/08/28 00:56:59;;;;;;;0.00;0.00;;;;;;;;;;5050849;28;21583;-59
2022/08/28 00:59:24;;;;;;;0.00;0.00;;;;;;;;;;5051881;28;20068;-58
2022/08/28 01:01:53;;;;;;;0.10;0.10;;;;;;;;;;5051200;28;20036;-60
2022/08/28 01:04:19;;;;;;;0.22;0.22;;;;;;;;;;5051060;28;20029;-59
2022/08/28 01:06:45;;;;;;;0.90;0.85;;;;;;;;;;5051101;28;20062;-60
2022/08/28 01:09:11;;;;;;;0.63;0.63;;;;;;;;;;5053985;28;20390;-59
2022/08/28 01:11:39;;;;;;;0.00;0.00;;;;;;;;;;5050889;28;20028;-58
2022/08/28 01:14:05;;;;;;;0.00;0.00;;;;;;;;;;5052137;28;20039;-59
2022/08/28 01:16:30;;;;;;;0.00;0.00;;;;;;;;;;5052303;28;20025;-58
2022/08/28 01:18:56;;;;;;;0.03;0.03;;;;;;;;;;5050342;28;20039;-60
2022/08/28 01:21:22;;;;;;;0.00;0.00;;;;;;;;;;5051798;28;20021;-59
2022/08/28 01:23:47;;;;;;;7.57;2.63;;;;;;;;;;5051363;28;20762;-58
2022/08/28 01:26:13;;;;;;;0.00;0.00;;;;;;;;;;5050640;28;20025;-58
2022/08/28 01:28:39;;;;;;;0.00;0.00;;;;;;;;;;5049851;28;20277;-59
2022/08/28 01:31:04;;;;;;;0.00;0.00;;;;;;;;;;5050502;28;20039;-59
2022/08/28 01:33:29;;;;;;;0.00;0.00;;;;;;;;;;5051657;28;20027;-57
2022/08/28 01:35:54;;;;;;;0.00;0.00;;;;;;;;;;5054017;28;20112;-58
2022/08/28 01:38:19;;;;;;;0.00;0.00;;;;;;;;;;5056301;28;20020;-58
2022/08/28 01:40:46;;;;;;;0.00;0.00;;;;;;;;;;5056041;28;20016;-59
2022/08/28 01:43:13;;;;;;;1.25;1.00;;;;;;;;;;5054534;28;20017;-59
2022/08/28 01:45:40;;;;;;;0.00;0.00;;;;;;;;;;5055673;28;20092;-59
2022/08/28 01:48:06;;;;;;;0.00;0.00;;;;;;;;;;5054594;28;20033;-59
2022/08/28 01:50:32;;;;;;;0.00;0.00;;;;;;;;;;5054224;28;20036;-58
2022/08/28 01:52:57;;;;;;;0.00;0.00;;;;;;;;;;5055980;28;20106;-59
2022/08/28 01:55:23;;;;;;;0.00;0.00;;;;;;;;;;5057393;28;20054;-58
2022/08/28 01:57:50;;;;;;;0.00;0.00;;;;;;;;;;5053106;28;20045;-59
2022/08/28 02:00:16;;;;;;;0.00;0.00;;;;;;;;;;5056843;28;20017;-59
2022/08/28 02:02:41;;;;;;;0.00;0.00;;;;;;;;;;5053976;28;20044;-59
2022/08/28 02:05:07;;;;;;;0.38;0.38;;;;;;;;;;5055465;28;20025;-59
2022/08/28 02:07:32;;;;;;;0.90;0.55;;;;;;;;;;5055659;28;20373;-59
2022/08/28 02:09:58;;;;;;;0.80;0.80;;;;;;;;;;5053874;28;20119;-59
2022/08/28 02:12:24;;;;;;;0.00;0.00;;;;;;;;;;5055550;28;20027;-58
2022/08/28 02:14:49;;;;;;;0.00;0.00;;;;;;;;;;5053914;28;20017;-58
2022/08/28 02:17:14;;;;;;;0.00;0.00;;;;;;;;;;5055307;28;20464;-58
2022/08/28 02:19:39;;;;;;;0.00;0.00;;;;;;;;;;5055158;28;20023;-59
2022/08/28 02:22:07;;;;;;;0.00;0.00;;;;;;;;;;5055468;28;20096;-59
2022/08/28 02:24:32;;;;;;;0.00;0.00;;;;;;;;;;5054893;28;20427;-61
2022/08/28 02:26:57;;;;;;;0.00;0.00;;;;;;;;;;5055490;28;20020;-57
2022/08/28 02:29:24;;;;;;;0.00;0.00;;;;;;;;;;5053568;28;20029;-57
2022/08/28 02:31:50;;;;;;;0.00;0.00;;;;;;;;;;5055828;28;20060;-58
2022/08/28 02:34:15;;;;;;;0.00;0.00;;;;;;;;;;5055057;28;20045;-60
2022/08/28 02:36:41;;;;;;;0.00;0.00;;;;;;;;;;5056317;28;20427;-59
2022/08/28 02:39:06;;;;;;;0.00;0.00;;;;;;;;;;5053497;28;20116;-58
2022/08/28 02:41:31;;;;;;;0.00;0.00;;;;;;;;;;5053361;28;20100;-58
2022/08/28 02:43:57;;;;;;;0.70;0.57;;;;;;;;;;5055961;28;20029;-59
2022/08/28 02:46:25;;;;;;;0.00;0.00;;;;;;;;;;5054462;28;20024;-59
2022/08/28 02:48:50;;;;;;;1.85;1.75;;;;;;;;;;5051660;28;20027;-59
2022/08/28 02:51:15;;;;;;;0.00;0.00;;;;;;;;;;5053191;28;20029;-58
2022/08/28 02:53:41;;;;;;;0.00;0.00;;;;;;;;;;5053955;28;20033;-58
2022/08/28 02:56:06;;;;;;;0.00;0.00;;;;;;;;;;5049758;28;20422;-58
2022/08/28 02:58:34;;;;;;;0.00;0.00;;;;;;;;;;5054533;28;20362;-58
2022/08/28 03:01:00;;;;;;;0.00;0.00;;;;;;;;;;5054101;28;20168;-59
2022/08/28 03:03:26;;;;;;;0.05;0.05;;;;;;;;;;5054424;28;20068;-58
2022/08/28 03:05:51;;;;;;;0.00;0.00;;;;;;;;;;5052770;28;20021;-59
2022/08/28 03:08:16;;;;;;;0.00;0.00;;;;;;;;;;5054484;28;20449;-59
2022/08/28 03:10:42;;;;;;;0.00;0.00;;;;;;;;;;5052606;28;20028;-58
2022/08/28 03:13:07;;;;;;;0.00;0.00;;;;;;;;;;5054326;28;20270;-57
2022/08/28 03:15:32;;;;;;;0.00;0.00;;;;;;;;;;5052537;28;20021;-58
2022/08/28 03:17:57;;;;;;;0.00;0.00;;;;;;;;;;5055542;28;20021;-60
2022/08/28 03:20:23;;;;;;;0.00;0.00;;;;;;;;;;5054014;28;20021;-58
2022/08/28 03:25:32;;;;;;;0.05;0.05;;;;;;;;;;5054966;28;20079;-58
2022/08/28 03:27:57;;;;;;;0.00;0.00;;;;;;;;;;5054002;28;20044;-57
2022/08/28 03:30:23;;;;;;;0.00;0.00;;;;;;;;;;5052684;28;20438;-58
2022/08/28 03:32:48;;;;;;;0.00;0.00;;;;;;;;;;5052520;28;20087;-58
2022/08/28 03:35:14;;;;;;;0.00;0.00;;;;;;;;;;5055208;28;20029;-58
2022/08/28 03:37:39;;;;;;;0.00;0.00;;;;;;;;;;5052156;28;20036;-59
2022/08/28 03:40:05;;;;;;;0.00;0.00;;;;;;;;;;5053878;28;20070;-57
2022/08/28 03:42:30;;;;;;;0.00;0.00;;;;;;;;;;5052222;28;20017;-60
2022/08/28 03:44:56;;;;;;;0.00;0.00;;;;;;;;;;5054296;28;20040;-59
2022/08/28 03:47:23;;;;;;;0.00;0.00;;;;;;;;;;5052940;28;20074;-58
2022/08/28 03:49:53;;;;;;;0.00;0.00;;;;;;;;;;5053699;28;20070;-59
2022/08/28 03:52:18;;;;;;;0.00;0.00;;;;;;;;;;5057623;28;20025;-58
2022/08/28 03:54:44;;;;;;;0.00;0.00;;;;;;;;;;5054577;28;20032;-58
2022/08/28 03:57:09;;;;;;;0.00;0.00;;;;;;;;;;5051784;28;20272;-59
2022/08/28 03:59:34;;;;;;;0.93;0.17;;;;;;;;;;5053399;28;20029;-58
2022/08/28 04:02:00;;;;;;;0.38;0.38;;;;;;;;;;5051730;28;20017;-58
2022/08/28 04:04:25;;;;;;;0.00;0.00;;;;;;;;;;5053350;28;20020;-58
2022/08/28 04:06:50;;;;;;;0.00;0.00;;;;;;;;;;5051867;28;20298;-59
2022/08/28 04:09:15;;;;;;;0.00;0.00;;;;;;;;;;5053564;28;20040;-59
2022/08/28 04:11:41;;;;;;;0.00;0.00;;;;;;;;;;5053024;28;20639;-60
2022/08/28 04:14:06;;;;;;;0.00;0.00;;;;;;;;;;5052772;28;20493;-58
2022/08/28 04:16:32;;;;;;;0.00;0.00;;;;;;;;;;5054591;28;20023;-58
2022/08/28 04:18:57;;;;;;;0.30;0.20;;;;;;;;;;5050035;28;20017;-58
2022/08/28 04:21:23;;;;;;;0.00;0.00;;;;;;;;;;5052742;28;20017;-60
2022/08/28 04:23:48;;;;;;;0.00;0.00;;;;;;;;;;5052349;28;20398;-59
2022/08/28 04:26:15;;;;;;;0.00;0.00;;;;;;;;;;5052915;28;20059;-58
2022/08/28 04:28:40;;;;;;;0.00;0.00;;;;;;;;;;5051261;28;20021;-60
2022/08/28 04:31:07;;;;;;;0.00;0.00;;;;;;;;;;5052933;28;20032;-59
2022/08/28 04:33:33;;;;;;;0.00;0.00;;;;;;;;;;5053052;28;20470;-60
2022/08/28 04:36:01;;;;;;;0.00;0.00;;;;;;;;;;5051218;28;20431;-59
2022/08/28 04:38:26;;;;;;;0.10;0.10;;;;;;;;;;5056031;28;20107;-58
2022/08/28 04:40:51;;;;;;;0.20;0.20;;;;;;;;;;5050901;28;20488;-59
2022/08/28 04:43:16;;;;;;;0.00;0.00;;;;;;;;;;5051118;28;20394;-58
2022/08/28 04:45:42;;;;;;;0.00;0.00;;;;;;;;;;5053666;28;20378;-59
2022/08/28 04:48:11;;;;;;;0.45;0.45;;;;;;;;;;5051038;28;20251;-58
2022/08/28 04:50:39;;;;;;;0.00;0.00;;;;;;;;;;5051131;28;20025;-59
2022/08/28 04:53:05;;;;;;;0.00;0.00;;;;;;;;;;5053868;28;20501;-58
2022/08/28 04:55:30;;;;;;;0.00;0.00;;;;;;;;;;5054902;28;20271;-59
2022/08/28 04:57:55;;;;;;;0.00;0.00;;;;;;;;;;5052821;28;20056;-59
2022/08/28 05:00:22;;;;;;;0.17;0.17;;;;;;;;;;5056105;28;20075;-58
2022/08/28 05:02:47;;;;;;;0.25;0.25;;;;;;;;;;5054515;28;20021;-57
2022/08/28 05:05:13;;;;;;;0.00;0.00;;;;;;;;;;5054453;28;20047;-59
2022/08/28 05:07:38;;;;;;;0.40;0.40;;;;;;;;;;5052684;28;20025;-59
2022/08/28 05:10:03;;;;;;;0.00;0.00;;;;;;;;;;5051552;28;20485;-58
2022/08/28 05:12:29;;;;;;;0.00;0.00;;;;;;;;;;5050720;28;20104;-60
2022/08/28 05:14:54;;;;;;;0.00;0.00;;;;;;;;;;5055177;28;20111;-59
2022/08/28 05:17:19;;;;;;;0.00;0.00;;;;;;;;;;5052474;28;20059;-59
2022/08/28 05:19:44;;;;;;;0.05;0.05;;;;;;;;;;5050777;28;20096;-59
2022/08/28 05:22:09;;;;;;;0.15;0.15;;;;;;;;;;5057512;28;20016;-58
2022/08/28 05:24:39;;;;;;;0.00;0.00;;;;;;;;;;5051939;28;20411;-57
2022/08/28 05:27:04;;;;;;;0.47;0.47;;;;;;;;;;5052593;28;20428;-58
2022/08/28 05:29:30;;;;;;;0.00;0.00;;;;;;;;;;5052645;28;20031;-58
2022/08/28 05:31:55;;;;;;;0.10;0.10;;;;;;;;;;5054843;28;20547;-58
2022/08/28 05:34:20;;;;;;;0.55;0.55;;;;;;;;;;5051169;28;20057;-59
2022/08/28 05:36:46;;;;;;;1.27;0.20;;;;;;;;;;5055335;28;20458;-58
2022/08/28 05:39:12;;;;;;;0.00;0.00;;;;;;;;;;5060009;28;20462;-59
2022/08/28 05:41:39;;;;;;;0.00;0.00;;;;;;;;;;5050850;28;20021;-59
2022/08/28 05:44:06;;;;;;;0.00;0.00;;;;;;;;;;5052543;28;20029;-58
2022/08/28 05:46:31;;;;;;;0.00;0.00;;;;;;;;;;5052087;28;20121;-59
2022/08/28 05:48:58;;;;;;;0.20;0.20;;;;;;;;;;5051764;28;20152;-59
2022/08/28 05:51:25;;;;;;;0.10;0.10;;;;;;;;;;5051441;28;20424;-60
2022/08/28 05:53:51;;;;;;;0.10;0.10;;;;;;;;;;5053735;28;20070;-58
2022/08/28 05:56:17;;;;;;;0.32;0.32;;;;;;;;;;5051874;28;20123;-58
2022/08/28 05:58:43;;;;;;;0.00;0.00;;;;;;;;;;5053585;28;20017;-59
2022/08/28 06:01:08;;;;;;;0.00;0.00;;;;;;;;;;5054936;28;20013;-59
2022/08/28 06:03:34;;;;;;;0.00;0.00;;;;;;;;;;5052164;28;20049;-58
2022/08/28 06:06:00;;;;;;;0.00;0.00;;;;;;;;;;5056378;28;20075;-57
2022/08/28 06:08:26;;;;;;;0.00;0.00;;;;;;;;;;5050960;28;20095;-58
2022/08/28 06:10:52;;;;;;;0.00;0.00;;;;;;;;;;5056134;28;20028;-59
2022/08/28 06:13:17;;;;;;;0.00;0.00;;;;;;;;;;5052789;28;20021;-58
2022/08/28 06:15:43;;;;;;;0.00;0.00;;;;;;;;;;5054152;28;20298;-57
2022/08/28 06:18:08;;;;;;;0.00;0.00;;;;;;;;;;5055384;28;20044;-57
2022/08/28 06:20:40;;;;;;;0.10;0.10;;;;;;;;;;5051043;28;20013;-59
2022/08/28 06:23:05;;;;;;;0.55;0.55;;;;;;;;;;5049915;28;20023;-59
2022/08/28 06:25:30;;;;;;;0.00;0.00;;;;;;;;;;5051119;28;20441;-58
2022/08/28 06:27:55;;;;;;;0.00;0.00;;;;;;;;;;5050826;28;20029;-59
2022/08/28 06:30:21;;;;;;;0.00;0.00;;;;;;;;;;5052383;28;20052;-59
2022/08/28 06:32:46;;;;;;;2.85;2.65;;;;;;;;;;5051680;28;20108;-58
2022/08/28 06:35:12;;;;;;;0.00;0.00;;;;;;;;;;5051983;28;20111;-59
2022/08/28 06:37:37;;;;;;;0.00;0.00;;;;;;;;;;5052088;28;20029;-60
2022/08/28 06:40:03;;;;;;;0.00;0.00;;;;;;;;;;5050301;28;20037;-59
2022/08/28 06:42:30;;;;;;;0.00;0.00;;;;;;;;;;5052079;28;20078;-60
2022/08/28 06:44:55;;;;;;;0.00;0.00;;;;;;;;;;5050643;28;20037;-59
2022/08/28 06:47:20;;;;;;;0.00;0.00;;;;;;;;;;5052667;28;20032;-60
2022/08/28 06:49:45;;;;;;;0.10;0.10;;;;;;;;;;5050438;28;20025;-59
2022/08/28 06:52:11;;;;;;;0.10;0.10;;;;;;;;;;5052604;28;20029;-59
2022/08/28 06:54:36;;;;;;;2.53;0.63;;;;;;;;;;5050863;28;21091;-59
2022/08/28 06:57:03;;;;;;;2.00;0.97;;;;;;;;;;5050102;28;20055;-60
2022/08/28 06:59:28;;;;;;;0.00;0.00;;;;;;;;;;5049629;28;20270;-59
2022/08/28 07:01:54;;;;;;;0.10;0.10;;;;;;;;;;5050796;28;20029;-58
2022/08/28 07:04:19;;;;;;;1.30;1.30;;;;;;;;;;5050895;28;20031;-58
2022/08/28 07:06:48;;;;;;;0.00;0.00;;;;;;;;;;5050666;28;20028;-59
2022/08/28 07:09:13;;;;;;;9.88;0.80;;;;;;;;;;5051301;28;20108;-59
2022/08/28 07:11:39;;;;;;;0.00;0.00;;;;;;;;;;5050723;28;20100;-60
2022/08/28 07:14:04;;;;;;;0.00;0.00;;;;;;;;;;5050356;28;20028;-59
2022/08/28 07:16:31;;;;;;;0.38;0.38;;;;;;;;;;5049611;28;20074;-59
2022/08/28 07:18:56;;;;;;;0.10;0.10;;;;;;;;;;5050828;28;20025;-58
2022/08/28 07:21:22;;;;;;;0.43;0.10;;;;;;;;;;5051295;28;20108;-59
2022/08/28 07:23:47;;;;;;;0.25;0.25;;;;;;;;;;5050680;28;20394;-59
2022/08/28 07:26:17;;;;;;;0.10;0.10;;;;;;;;;;5051014;28;20036;-59
2022/08/28 07:28:43;;;;;;;0.00;0.00;;;;;;;;;;5051292;28;20036;-59
2022/08/28 07:31:11;;;;;;;0.08;0.08;;;;;;;;;;5050168;28;20021;-59
2022/08/28 07:33:37;;;;;;;0.00;0.00;;;;;;;;;;5049998;28;20063;-59
2022/08/28 07:36:05;;;;;;;0.00;0.00;;;;;;;;;;5050419;28;20783;-59
2022/08/28 07:38:31;;;;;;;0.00;0.00;;;;;;;;;;5051149;28;20029;-59
2022/08/28 07:40:56;;;;;;;0.00;0.00;;;;;;;;;;5050519;28;20029;-59
2022/08/28 07:46:06;;;;;;;0.00;0.00;;;;;;;;;;5050150;28;20063;-59
2022/08/28 07:48:34;;;;;;;0.00;0.00;;;;;;;;;;5050547;28;20120;-59
2022/08/28 07:50:59;;;;;;;0.15;0.15;;;;;;;;;;5049942;28;20036;-59
2022/08/28 07:53:25;;;;;;;0.00;0.00;;;;;;;;;;5049136;28;20465;-58
2022/08/28 07:55:50;;;;;;;0.00;0.00;;;;;;;;;;5049869;28;20114;-59
2022/08/28 07:58:16;;;;;;;0.00;0.00;;;;;;;;;;5050703;28;20060;-58
2022/08/28 08:00:41;;;;;;;8.48;6.18;;;;;;;;;;5050602;28;20017;-59
2022/08/28 08:03:07;;;;;;;0.00;0.00;;;;;;;;;;5049975;28;20070;-59
2022/08/28 08:05:32;;;;;;;0.00;0.00;;;;;;;;;;5050034;28;20025;-60
2022/08/28 08:07:57;;;;;;;0.00;0.00;;;;;;;;;;5049910;28;20079;-58
2022/08/28 08:10:22;;;;;;;0.90;0.10;;;;;;;;;;5050260;28;20078;-59
2022/08/28 08:12:48;;;;;;;0.00;0.00;;;;;;;;;;5048104;28;20117;-59
2022/08/28 08:15:13;;;;;;;0.00;0.00;;;;;;;;;;5049729;28;20048;-58
2022/08/28 08:17:38;;;;;;;1.08;0.10;;;;;;;;;;5049719;28;20035;-58
2022/08/28 08:20:05;;;;;;;0.40;0.40;;;;;;;;;;5049702;28;20019;-58
2022/08/28 08:22:30;;;;;;;0.00;0.00;;;;;;;;;;5050189;28;20480;-59
2022/08/28 08:24:55;;;;;;;0.00;0.00;;;;;;;;;;5049649;28;20032;-59
2022/08/28 08:27:21;;;;;;;0.98;0.98;;;;;;;;;;5049989;28;20029;-59
2022/08/28 08:29:47;;;;;;;0.00;0.00;;;;;;;;;;5049510;28;20538;-59
2022/08/28 08:32:14;;;;;;;0.00;0.00;;;;;;;;;;5049960;28;20283;-59
2022/08/28 08:34:44;;;;;;;0.10;0.10;;;;;;;;;;5049647;28;20573;-59
2022/08/28 08:37:10;;;;;;;0.00;0.00;;;;;;;;;;5049167;28;20032;-59
2022/08/28 08:39:36;;;;;;;1.15;0.77;;;;;;;;;;5050068;28;20025;-58
2022/08/28 08:42:03;;;;;;;0.52;0.52;;;;;;;;;;5049514;28;20020;-59
2022/08/28 08:44:31;;;;;;;0.00;0.00;;;;;;;;;;5049881;28;20033;-59
2022/08/28 08:47:15;;;;;;;0.03;0.03;;;;;;;;;;5049114;28;20040;-58
2022/08/28 08:49:59;;;;;;;0.00;0.00;;;;;;;;;;5049304;28;20111;-59
2022/08/28 08:52:36;;;;;;;0.00;0.00;;;;;;;;;;5049697;28;20025;-58
2022/08/28 08:55:05;;;;;;;0.00;0.00;;;;;;;;;;5048778;28;20025;-59
2022/08/28 08:57:30;;;;;;;0.00;0.00;;;;;;;;;;5049359;28;20374;-59
2022/08/28 08:59:56;;;;;;;0.75;0.75;;;;;;;;;;5048818;28;20025;-58
2022/08/28 09:02:22;;;;;;;0.00;0.00;;;;;;;;;;5049599;28;20114;-59
2022/08/28 09:04:50;;;;;;;0.00;0.00;;;;;;;;;;5048870;28;20075;-59
2022/08/28 09:07:18;;;;;;;0.13;0.13;;;;;;;;;;5049686;28;20310;-58
2022/08/28 09:09:46;;;;;;;0.20;0.20;;;;;;;;;;5048596;28;20029;-58
2022/08/28 09:12:13;;;;;;;0.60;0.60;;;;;;;;;;5048873;28;20029;-58
2022/08/28 09:15:04;;;;;;;3.53;2.13;;;;;;;;;;5049073;28;20513;-58
2022/08/28 09:17:36;;;;;;;0.00;0.00;;;;;;;;;;5049227;28;20048;-59
2022/08/28 09:20:02;;;;;;;0.10;0.10;;;;;;;;;;5048748;28;20017;-59
2022/08/28 09:22:27;;;;;;;2.20;0.60;;;;;;;;;;5048983;28;20099;-59
2022/08/28 09:24:52;;;;;;;0.00;0.00;;;;;;;;;;5048673;28;20029;-58
2022/08/28 09:27:21;;;;;;;0.63;0.63;;;;;;;;;;5049228;28;20263;-59
2022/08/28 09:29:52;;;;;;;2.08;0.30;;;;;;;;;;5049256;28;20024;-57
2022/08/28 09:32:40;;;;;;;0.00;0.00;;;;;;;;;;5049301;28;20029;-59
2022/08/28 09:35:14;;;;;;;0.00;0.00;;;;;;;;;;5048596;28;20500;-58
2022/08/28 09:37:40;;;;;;;0.30;0.20;;;;;;;;;;5048724;28;20040;-59
2022/08/28 09:40:11;;;;;;;0.30;0.30;;;;;;;;;;5047291;28;20025;-59
2022/08/28 09:45:22;;;;;;;0.00;0.00;;;;;;;;;;5047747;28;20107;-59
2022/08/28 09:47:47;;;;;;;1.08;0.88;;;;;;;;;;5049176;28;20396;-58
2022/08/28 09:50:15;;;;;;;0.00;0.00;;;;;;;;;;5048527;28;20013;-58
2022/08/28 09:52:41;;;;;;;0.10;0.10;;;;;;;;;;5050025;28;20147;-58
2022/08/28 09:55:09;;;;;;;0.10;0.10;;;;;;;;;;5048695;28;20052;-59
2022/08/28 09:57:34;;;;;;;0.68;0.68;;;;;;;;;;5051722;28;20041;-58
2022/08/28 09:59:59;;;;;;;0.00;0.00;;;;;;;;;;5052336;28;20052;-58
2022/08/28 10:02:31;;;;;;;0.70;0.70;;;;;;;;;;5052591;28;20122;-58
2022/08/28 10:05:02;;;;;;;0.63;0.38;;;;;;;;;;5052947;28;20905;-59
2022/08/28 10:07:32;;;;;;;1.05;1.05;;;;;;;;;;5052138;28;20043;-59
2022/08/28 10:10:16;;;;;;;0.00;0.00;;;;;;;;;;5051356;28;20033;-59
2022/08/28 10:12:50;;;;;;;1.17;1.10;;;;;;;;;;5052526;28;20049;-60
2022/08/28 10:15:34;;;;;;;0.80;0.80;;;;;;;;;;5052360;28;20021;-58
2022/08/28 10:18:05;;;;;;;0.35;0.35;;;;;;;;;;5051329;28;20497;-58
2022/08/28 10:20:30;;;;;;;0.22;0.20;;;;;;;;;;5052188;28;20013;-57
2022/08/28 10:22:55;;;;;;;0.10;0.10;;;;;;;;;;5051871;28;20118;-59
2022/08/28 10:25:25;;;;;;;7.43;0.40;;;;;;;;;;5052723;28;20333;-59
2022/08/28 10:27:59;;;;;;;0.00;0.00;;;;;;;;;;5052085;28;20251;-59
2022/08/28 10:30:26;;;;;;;0.00;0.00;;;;;;;;;;5051331;28;20033;-59
2022/08/28 10:33:10;;;;;;;0.00;0.00;;;;;;;;;;5052447;28;20021;-58
2022/08/28 10:35:35;;;;;;;0.10;0.10;;;;;;;;;;5050857;28;20028;-59
2022/08/28 10:38:07;;;;;;;1.07;1.07;;;;;;;;;;5051659;28;20055;-59
2022/08/28 10:40:35;;;;;;;2.05;1.92;;;;;;;;;;5051850;28;20270;-60
2022/08/28 10:43:18;;;;;;;0.00;0.00;;;;;;;;;;5051572;28;20027;-59
2022/08/28 10:45:44;;;;;;;0.00;0.00;;;;;;;;;;5052136;28;20107;-58
2022/08/28 10:48:09;;;;;;;0.00;0.00;;;;;;;;;;5051111;28;20545;-59
2022/08/28 10:50:46;;;;;;;0.47;0.20;;;;;;;;;;5053296;28;20381;-58
2022/08/28 10:53:14;;;;;;;0.00;0.00;;;;;;;;;;5051676;28;20287;-58
2022/08/28 10:55:48;;;;;;;0.17;0.17;;;;;;;;;;5051159;28;20017;-59
2022/08/28 10:58:14;;;;;;;0.10;0.10;;;;;;;;;;5051519;28;20041;-59
2022/08/28 11:00:42;;;;;;;3.67;1.63;;;;;;;;;;5051981;28;20013;-59
2022/08/28 11:03:12;;;;;;;0.00;0.00;;;;;;;;;;5052426;28;20025;-58
2022/08/28 11:05:47;;;;;;;0.00;0.00;;;;;;;;;;5050487;28;20025;-58
2022/08/28 11:08:20;;;;;;;0.40;0.15;;;;;;;;;;5050195;28;20036;-59
2022/08/28 11:10:48;;;;;;;0.00;0.00;;;;;;;;;;5051154;28;20044;-58
2022/08/28 11:13:33;;;;;;;0.45;0.45;;;;;;;;;;5051241;28;20091;-58
2022/08/28 11:15:58;;;;;;;0.38;0.38;;;;;;;;;;5050845;28;20040;-58
2022/08/28 11:18:23;;;;;;;0.52;0.52;;;;;;;;;;5052638;28;20025;-58
2022/08/28 11:21:04;;;;;;;0.07;0.07;;;;;;;;;;5052655;28;20106;-58
2022/08/28 11:23:37;;;;;;;0.98;0.57;;;;;;;;;;5049805;28;20278;-59
2022/08/28 11:26:05;;;;;;;1.92;1.27;;;;;;;;;;5047243;28;20040;-59
2022/08/28 11:28:30;;;;;;;0.85;0.75;;;;;;;;;;5050981;28;20025;-58
2022/08/28 11:31:04;;;;;;;0.03;0.03;;;;;;;;;;5050293;28;20029;-59
2022/08/28 11:33:34;;;;;;;0.00;0.00;;;;;;;;;;5046580;28;20303;-60
2022/08/28 11:35:59;;;;;;;0.05;0.05;;;;;;;;;;5047927;28;20021;-57
2022/08/28 11:38:39;;;;;;;1.10;1.10;;;;;;;;;;5049507;28;20493;-59
2022/08/28 11:41:11;;;;;;;2.67;0.63;;;;;;;;;;5044348;28;20037;-58
2022/08/28 11:43:37;;;;;;;3.42;0.98;;;;;;;;;;5049139;28;20067;-60
2022/08/28 11:46:04;;;;;;;0.32;0.32;;;;;;;;;;5048475;28;20028;-58
2022/08/28 11:48:32;;;;;;;1.17;0.82;;;;;;;;;;5046518;28;20452;-58
2022/08/28 11:51:03;;;;;;;0.17;0.17;;;;;;;;;;5049169;28;20359;-57
2022/08/28 11:53:47;;;;;;;2.08;0.98;;;;;;;;;;5051007;28;20021;-58
2022/08/28 11:56:24;;;;;;;0.00;0.00;;;;;;;;;;5048522;28;20390;-58
2022/08/28 11:58:55;;;;;;;0.38;0.38;;;;;;;;;;5050627;28;20406;-59
2022/08/28 12:01:28;;;;;;;0.15;0.15;;;;;;;;;;5050175;28;20079;-58
2022/08/28 12:03:57;;;;;;;1.05;0.70;;;;;;;;;;5049756;28;20048;-59
2022/08/28 12:06:55;;;;;;;1.27;1.23;;;;;;;;;;5050624;28;20826;-58
2022/08/28 12:09:38;;;;;;;2.72;0.90;;;;;;;;;;5037662;28;20350;-58
2022/08/28 12:12:09;;;;;;;0.85;0.47;;;;;;;;;;5051083;28;20020;-59
2022/08/28 12:14:37;;;;;;;0.00;0.00;;;;;;;;;;5050470;28;20417;-59
2022/08/28 12:17:02;;;;;;;0.20;0.20;;;;;;;;;;5049843;28;20537;-58
2022/08/28 12:19:42;;;;;;;0.00;0.00;;;;;;;;;;5049897;28;20136;-59
2022/08/28 12:22:12;;;;;;;0.00;0.00;;;;;;;;;;5049808;28;20158;-59
2022/08/28 12:24:48;;;;;;;0.45;0.45;;;;;;;;;;5050093;28;20481;-59
2022/08/28 12:27:14;;;;;;;0.08;0.00;;;;;;;;;;5049230;28;20025;-59
2022/08/28 12:29:47;;;;;;;0.47;0.47;;;;;;;;;;5049442;28;20374;-59
2022/08/28 12:32:31;;;;;;;0.93;0.32;;;;;;;;;;5047571;28;20025;-60
2022/08/28 12:34:56;;;;;;;1.35;0.52;;;;;;;;;;5049022;28;20497;-57
2022/08/28 12:37:28;;;;;;;0.47;0.47;;;;;;;;;;5048699;28;20013;-58
2022/08/28 12:39:55;;;;;;;0.17;0.17;;;;;;;;;;5049023;28;20665;-59
2022/08/28 12:42:22;;;;;;;0.90;0.90;;;;;;;;;;5048560;28;20097;-57
2022/08/28 12:44:48;;;;;;;2.25;0.47;;;;;;;;;;5049098;28;20021;-59
2022/08/28 12:47:15;;;;;;;0.00;0.00;;;;;;;;;;5048713;28;20413;-59
2022/08/28 12:49:40;;;;;;;0.28;0.22;;;;;;;;;;5048763;28;20535;-59
2022/08/28 12:52:15;;;;;;;0.00;0.00;;;;;;;;;;5048540;28;20024;-59
2022/08/28 12:54:40;;;;;;;2.95;0.52;;;;;;;;;;5049028;28;20021;-57
2022/08/28 12:57:08;;;;;;;0.68;0.20;;;;;;;;;;5048755;28;20047;-59
2022/08/28 12:59:33;;;;;;;0.80;0.80;;;;;;;;;;5051906;28;20014;-59
2022/08/28 13:02:00;;;;;;;0.03;0.03;;;;;;;;;;5052732;28;20029;-58
2022/08/28 13:04:44;;;;;;;2.45;1.20;;;;;;;;;;5051621;28;20029;-60
2022/08/28 13:07:14;;;;;;;0.30;0.10;;;;;;;;;;5048690;28;20025;-60
2022/08/28 13:09:47;;;;;;;0.20;0.17;;;;;;;;;;5049214;28;20064;-59
2022/08/28 13:12:32;;;;;;;0.00;0.00;;;;;;;;;;5048907;28;20029;-61
2022/08/28 13:14:58;;;;;;;0.85;0.85;;;;;;;;;;5048924;28;20497;-58
2022/08/28 13:17:42;;;;;;;0.20;0.20;;;;;;;;;;5049305;28;20154;-59
2022/08/28 13:20:07;;;;;;;0.20;0.20;;;;;;;;;;5046727;28;20486;-59
2022/08/28 13:22:34;;;;;;;0.38;0.38;;;;;;;;;;5047635;28;20024;-60
2022/08/28 13:25:01;;;;;;;0.50;0.30;;;;;;;;;;5048186;28;20056;-59
2022/08/28 13:27:27;;;;;;;0.00;0.00;;;;;;;;;;5048637;28;20032;-59
2022/08/28 13:30:10;;;;;;;0.10;0.10;;;;;;;;;;5047348;28;20110;-60
2022/08/28 13:32:37;;;;;;;0.20;0.20;;;;;;;;;;5046824;28;20049;-61
2022/08/28 13:35:05;;;;;;;0.00;0.00;;;;;;;;;;5047722;28;20029;-59
2022/08/28 13:37:43;;;;;;;0.00;0.00;;;;;;;;;;5048670;28;20040;-59
2022/08/28 13:40:09;;;;;;;0.00;0.00;;;;;;;;;;5048183;28;20440;-59
2022/08/28 13:42:35;;;;;;;0.00;0.00;;;;;;;;;;5048733;28;20512;-59
2022/08/28 13:45:00;;;;;;;0.00;0.00;;;;;;;;;;5047769;28;20029;-60
2022/08/28 13:47:26;;;;;;;2.08;1.10;;;;;;;;;;5047617;28;20021;-58
2022/08/28 13:49:51;;;;;;;1.75;1.17;;;;;;;;;;5047956;28;20028;-58
2022/08/28 13:52:16;;;;;;;0.10;0.10;;;;;;;;;;5047864;28;20041;-59
2022/08/28 13:54:42;;;;;;;1.55;0.00;;;;;;;;;;5048362;28;20359;-59
2022/08/28 13:57:07;;;;;;;0.00;0.00;;;;;;;;;;5046201;28;20469;-58
2022/08/28 13:59:33;;;;;;;0.65;0.47;;;;;;;;;;5047872;28;20021;-58
2022/08/28 14:04:44;;;;;;;0.00;0.00;;;;;;;;;;5048159;28;20405;-60
2022/08/28 14:07:10;;;;;;;0.10;0.10;;;;;;;;;;5047856;28;20020;-58
2022/08/28 14:09:36;;;;;;;0.45;0.45;;;;;;;;;;5048104;28;20112;-59
2022/08/28 14:12:02;;;;;;;0.10;0.10;;;;;;;;;;5046692;28;20112;-59
2022/08/28 14:14:28;;;;;;;0.00;0.00;;;;;;;;;;5047767;28;20481;-59
2022/08/28 14:16:53;;;;;;;0.22;0.22;;;;;;;;;;5048025;28;20025;-59
2022/08/28 14:19:19;;;;;;;0.00;0.00;;;;;;;;;;5047333;28;20021;-60
2022/08/28 14:21:44;;;;;;;0.55;0.55;;;;;;;;;;5047968;28;20056;-60
2022/08/28 14:24:09;;;;;;;0.20;0.20;;;;;;;;;;5047686;28;20370;-59
2022/08/28 14:26:35;;;;;;;0.15;0.15;;;;;;;;;;5047287;28;20742;-60
2022/08/28 14:29:00;;;;;;;0.85;0.85;;;;;;;;;;5047855;28;20021;-59
2022/08/28 14:31:27;;;;;;;0.00;0.00;;;;;;;;;;5049293;28;20020;-59
2022/08/28 14:33:52;;;;;;;0.10;0.10;;;;;;;;;;5047821;28;20029;-59
2022/08/28 14:36:22;;;;;;;0.25;0.25;;;;;;;;;;5047563;28;20148;-60
2022/08/28 14:38:48;;;;;;;1.85;1.75;;;;;;;;;;5046519;28;20037;-59
2022/08/28 14:41:13;;;;;;;2.97;0.80;;;;;;;;;;5047583;28;20013;-58
2022/08/28 14:43:39;;;;;;;1.00;0.43;;;;;;;;;;5049523;28;20021;-58
2022/08/28 14:46:05;;;;;;;0.52;0.52;;;;;;;;;;5051148;28;20047;-60
2022/08/28 14:48:31;;;;;;;2.72;1.20;;;;;;;;;;5051132;28;20021;-58
2022/08/28 14:50:56;;;;;;;0.10;0.10;;;;;;;;;;5051669;28;20037;-59
2022/08/28 14:53:21;;;;;;;0.00;0.00;;;;;;;;;;5050839;28;20035;-59
2022/08/28 14:55:47;;;;;;;0.10;0.10;;;;;;;;;;5050044;28;20064;-59
2022/08/28 14:58:13;;;;;;;1.35;0.40;;;;;;;;;;5051145;28;20496;-60